createdAt,value
2022-11-20T00:00:19.317Z,4.03
2022-11-20T00:05:21.017Z,3.87
2022-11-20T00:10:22.559Z,3.94
2022-11-20T00:15:24.152Z,3.97
2022-11-20T00:20:25.832Z,4.03
2022-11-20T00:25:27.435Z,4.12
2022-11-20T00:30:29.036Z,4.03
2022-11-20T00:35:30.947Z,4.14
2022-11-20T00:40:32.586Z,4.10
2022-11-20T00:45:34.136Z,4.02
2022-11-20T00:50:35.783Z,3.99
2022-11-20T00:55:37.394Z,3.95
2022-11-20T01:00:39.102Z,3.80
2022-11-20T01:05:40.640Z,3.83
2022-11-20T01:10:42.179Z,3.92
2022-11-20T01:15:43.792Z,3.84
2022-11-20T01:20:45.363Z,3.92
2022-11-20T01:25:46.949Z,3.85
2022-11-20T01:30:48.476Z,3.85
2022-11-20T01:35:50.005Z,4.04
2022-11-20T01:40:56.040Z,4.00
2022-11-20T01:46:00.540Z,4.14
2022-11-20T01:51:04.874Z,4.08
2022-11-20T01:56:10.647Z,4.07
2022-11-20T02:01:13.721Z,4.06
2022-11-20T02:06:32.432Z,3.73
2022-11-20T02:11:33.981Z,3.68
2022-11-20T02:16:47.446Z,3.46
2022-11-20T02:22:05.668Z,3.35
2022-11-20T02:27:10.976Z,3.39
2022-11-20T02:32:39.519Z,3.55
2022-11-20T02:37:41.775Z,3.71
2022-11-20T02:42:43.444Z,3.70
2022-11-20T02:47:45.027Z,3.73
2022-11-20T02:52:46.629Z,3.71
2022-11-20T02:57:48.122Z,3.60
2022-11-20T03:02:49.680Z,3.64
2022-11-20T03:07:51.355Z,3.74
2022-11-20T03:12:56.058Z,3.88
2022-11-20T03:17:57.681Z,3.89
2022-11-20T03:22:59.211Z,3.93
2022-11-20T03:28:00.778Z,3.96
2022-11-20T03:33:02.369Z,4.00
2022-11-20T03:38:03.954Z,3.97
2022-11-20T03:43:05.504Z,4.05
2022-11-20T03:48:07.021Z,4.01
2022-11-20T03:53:08.619Z,4.01
2022-11-20T03:58:10.938Z,4.08
2022-11-20T04:03:12.465Z,4.12
2022-11-20T04:08:14.023Z,4.05
2022-11-20T04:13:15.870Z,4.02
2022-11-20T04:18:17.440Z,4.01
2022-11-20T04:23:19.033Z,3.93
2022-11-20T04:28:21.233Z,3.79
2022-11-20T04:33:22.756Z,3.73
2022-11-20T04:38:24.275Z,3.79
2022-11-20T04:43:25.965Z,3.88
2022-11-20T04:48:30.021Z,3.80
2022-11-20T04:53:31.753Z,3.71
2022-11-20T04:58:34.482Z,3.79
2022-11-20T05:03:41.001Z,3.73
2022-11-20T05:08:43.903Z,3.85
2022-11-20T05:13:45.724Z,3.96
2022-11-20T05:18:48.316Z,4.02
2022-11-20T05:23:50.002Z,4.15
2022-11-20T05:28:52.388Z,4.18
2022-11-20T05:33:54.370Z,4.19
2022-11-20T05:39:01.264Z,4.31
2022-11-20T05:44:03.285Z,4.34
2022-11-20T05:49:04.935Z,4.44
2022-11-20T05:54:06.519Z,4.50
2022-11-20T05:59:08.193Z,4.54
2022-11-20T06:04:09.835Z,4.51
2022-11-20T06:09:11.351Z,4.38
2022-11-20T06:14:12.925Z,4.38
2022-11-20T06:19:14.523Z,4.28
2022-11-20T06:24:16.311Z,4.12
2022-11-20T06:29:18.021Z,4.12
2022-11-20T06:34:19.711Z,4.06
2022-11-20T06:39:21.483Z,4.14
2022-11-20T06:44:23.345Z,4.06
2022-11-20T06:49:25.290Z,4.06
2022-11-20T06:54:26.931Z,4.01
2022-11-20T06:59:28.496Z,4.10
2022-11-20T07:04:30.006Z,4.03
2022-11-20T07:09:31.520Z,3.94
2022-11-20T07:14:33.140Z,4.02
2022-11-20T07:19:34.667Z,4.11
2022-11-20T07:24:36.290Z,4.22
2022-11-20T07:29:37.876Z,4.27
2022-11-20T07:34:39.401Z,4.36
2022-11-20T07:39:41.089Z,4.41
2022-11-20T07:44:42.661Z,4.37
2022-11-20T07:49:44.346Z,4.51
2022-11-20T07:54:45.963Z,4.56
2022-11-20T07:59:47.557Z,4.61
2022-11-20T08:04:49.352Z,4.68
2022-11-20T08:09:51.081Z,4.79
2022-11-20T08:14:52.713Z,4.56
2022-11-20T08:19:54.289Z,4.72
2022-11-20T08:24:55.834Z,4.88
2022-11-20T08:29:57.490Z,4.85
2022-11-20T08:34:59.190Z,5.04
2022-11-20T08:40:00.798Z,5.19
2022-11-20T08:45:02.447Z,5.37
2022-11-20T08:50:04.169Z,5.63
2022-11-20T08:55:07.394Z,5.61
2022-11-20T09:00:11.498Z,5.41
2022-11-20T09:05:13.184Z,5.17
2022-11-20T09:10:30.166Z,5.45
2022-11-20T09:15:32.348Z,5.34
2022-11-20T09:20:33.925Z,5.34
2022-11-20T09:25:35.564Z,5.46
2022-11-20T09:30:37.161Z,5.46
2022-11-20T09:35:38.821Z,5.31
2022-11-20T09:40:47.858Z,5.58
2022-11-20T09:46:07.729Z,6.03
2022-11-20T09:51:33.952Z,6.00
2022-11-20T09:56:40.019Z,5.90
2022-11-20T10:01:41.644Z,5.73
2022-11-20T10:07:32.622Z,5.79
2022-11-20T10:13:03.079Z,5.92
2022-11-20T10:18:31.713Z,6.17
2022-11-20T10:24:05.276Z,6.15
2022-11-20T10:29:19.389Z,6.35
2022-11-20T10:34:34.736Z,6.05
2022-11-20T10:39:45.552Z,5.95
2022-11-20T10:44:56.551Z,5.92
2022-11-20T10:50:13.815Z,6.05
2022-11-20T10:55:53.204Z,6.13
2022-11-20T11:01:05.250Z,5.84
2022-11-20T11:06:21.917Z,5.91
2022-11-20T11:11:32.798Z,5.96
2022-11-20T11:16:34.981Z,6.06
2022-11-20T11:21:36.662Z,6.08
2022-11-20T11:26:38.520Z,6.52
2022-11-20T11:31:40.216Z,6.39
2022-11-20T11:36:43.239Z,6.82
2022-11-20T11:41:45.226Z,6.54
2022-11-20T11:46:57.509Z,6.34
2022-11-20T11:52:17.102Z,6.66
2022-11-20T11:57:50.880Z,6.58
2022-11-20T12:03:04.024Z,6.40
2022-11-20T12:08:24.371Z,6.18
2022-11-20T12:13:31.675Z,6.28
2022-11-20T12:18:33.906Z,6.62
2022-11-20T12:23:53.654Z,6.59
2022-11-20T12:29:02.601Z,6.53
2022-11-20T12:34:39.103Z,6.53
2022-11-20T12:39:49.404Z,6.63
2022-11-20T12:45:16.573Z,6.76
2022-11-20T12:51:00.275Z,6.71
2022-11-20T12:56:04.054Z,6.79
2022-11-20T13:01:20.527Z,7.10
2022-11-20T13:06:22.569Z,6.89
2022-11-20T13:11:42.282Z,6.73
2022-11-20T13:16:53.225Z,6.72
2022-11-20T13:21:54.865Z,6.94
2022-11-20T13:27:14.580Z,7.14
2022-11-20T13:32:18.856Z,7.50
2022-11-20T13:37:31.651Z,7.19
2022-11-20T13:42:59.544Z,7.02
2022-11-20T13:48:05.885Z,6.88
2022-11-20T13:53:19.109Z,6.88
2022-11-20T13:58:32.658Z,6.99
2022-11-20T14:04:04.518Z,7.02
2022-11-20T14:08:57.531Z,7.01
2022-11-20T14:14:01.550Z,7.03
2022-11-20T14:19:21.876Z,7.12
2022-11-20T14:24:25.596Z,7.10
2022-11-20T14:29:38.516Z,7.22
2022-11-20T14:34:44.419Z,7.16
2022-11-20T14:39:51.937Z,7.20
2022-11-20T14:44:58.323Z,7.24
2022-11-20T14:50:04.649Z,7.21
2022-11-20T14:55:25.618Z,7.27
2022-11-20T15:00:28.027Z,7.20
2022-11-20T15:05:49.208Z,7.24
2022-11-20T15:10:52.667Z,7.18
2022-11-20T15:15:59.588Z,7.29
2022-11-20T15:21:10.956Z,7.28
2022-11-20T15:26:19.503Z,7.14
2022-11-20T15:31:23.937Z,7.19
2022-11-20T15:36:28.621Z,7.14
2022-11-20T15:41:30.321Z,7.13
2022-11-20T15:46:37.160Z,7.11
2022-11-20T15:51:39.349Z,7.08
2022-11-20T15:56:40.971Z,7.18
2022-11-20T16:01:43.486Z,7.23
2022-11-20T16:06:45.141Z,7.18
2022-11-20T16:11:48.036Z,7.24
2022-11-20T16:16:49.702Z,7.15
2022-11-20T16:21:51.445Z,7.15
2022-11-20T16:26:54.721Z,7.23
2022-11-20T16:31:57.696Z,7.27
2022-11-20T16:36:59.640Z,7.30
2022-11-20T16:42:05.412Z,7.31
2022-11-20T16:47:06.978Z,7.26
2022-11-20T16:52:08.722Z,7.21
2022-11-20T16:57:10.371Z,7.17
2022-11-20T17:02:11.869Z,7.16
2022-11-20T17:07:13.492Z,7.21
2022-11-20T17:12:15.229Z,7.16
2022-11-20T17:17:17.162Z,7.17
2022-11-20T17:22:18.813Z,7.20
2022-11-20T17:27:20.401Z,7.13
2022-11-20T17:32:22.186Z,7.16
2022-11-20T17:37:23.940Z,7.05
2022-11-20T17:42:25.593Z,7.21
2022-11-20T17:47:27.175Z,7.11
2022-11-20T17:52:28.813Z,7.16
2022-11-20T17:57:30.399Z,7.21
2022-11-20T18:02:32.202Z,7.19
2022-11-20T18:07:40.173Z,7.20
2022-11-20T18:12:43.205Z,7.14
2022-11-20T18:17:44.976Z,7.27
2022-11-20T18:22:46.521Z,7.34
2022-11-20T18:27:48.055Z,7.41
2022-11-20T18:32:49.805Z,7.41
2022-11-20T18:37:51.358Z,7.46
2022-11-20T18:42:53.021Z,7.51
2022-11-20T18:47:54.765Z,7.58
2022-11-20T18:52:56.387Z,7.76
2022-11-20T18:57:58.016Z,7.87
2022-11-20T19:02:59.741Z,8.15
2022-11-20T19:08:01.451Z,8.34
2022-11-20T19:13:03.169Z,8.40
2022-11-20T19:18:04.850Z,8.58
2022-11-20T19:23:06.447Z,8.61
2022-11-20T19:28:08.327Z,8.76
2022-11-20T19:33:09.984Z,8.73
2022-11-20T19:38:11.596Z,8.77
2022-11-20T19:43:13.195Z,8.92
2022-11-20T19:48:14.675Z,8.90
2022-11-20T19:53:16.254Z,8.94
2022-11-20T19:58:18.095Z,9.02
2022-11-20T20:03:20.099Z,9.04
2022-11-20T20:08:21.633Z,9.09
2022-11-20T20:13:24.050Z,9.28
2022-11-20T20:18:25.921Z,9.49
2022-11-20T20:23:27.516Z,9.48
2022-11-20T20:28:29.697Z,9.55
2022-11-20T20:33:31.345Z,9.52
2022-11-20T20:38:33.743Z,9.55
2022-11-20T20:43:36.170Z,9.67
2022-11-20T20:48:37.710Z,9.55
2022-11-20T20:53:39.219Z,9.61
2022-11-20T20:58:41.075Z,9.59
2022-11-20T21:03:42.694Z,9.61
2022-11-20T21:08:44.776Z,9.70
2022-11-20T21:13:47.453Z,9.65
2022-11-20T21:18:49.165Z,9.66
2022-11-20T21:23:50.686Z,9.48
2022-11-20T21:28:52.428Z,9.27
2022-11-20T21:33:55.698Z,9.08
2022-11-20T21:38:58.357Z,8.99
2022-11-20T21:44:30.588Z,8.98
2022-11-20T21:49:23.530Z,8.95
2022-11-20T21:54:25.522Z,8.96
2022-11-20T21:59:27.346Z,8.95
2022-11-20T22:04:29.000Z,8.86
2022-11-20T22:09:30.497Z,8.91
2022-11-20T22:14:32.088Z,8.92
2022-11-20T22:19:33.639Z,8.94
2022-11-20T22:24:35.178Z,8.99
2022-11-20T22:29:36.688Z,9.14
2022-11-20T22:34:38.276Z,8.81
2022-11-20T22:39:39.840Z,8.83
2022-11-20T22:44:41.586Z,8.90
2022-11-20T22:49:43.124Z,8.88
2022-11-20T22:54:44.644Z,8.80
2022-11-20T22:59:46.284Z,8.76
2022-11-20T23:04:47.778Z,8.71
2022-11-20T23:09:49.311Z,8.66
2022-11-20T23:14:50.787Z,8.60
2022-11-20T23:19:52.341Z,8.59
2022-11-20T23:24:53.960Z,8.57
2022-11-20T23:29:55.545Z,8.50
2022-11-20T23:34:57.143Z,8.42
2022-11-20T23:40:01.543Z,8.37
2022-11-20T23:45:03.332Z,8.43
2022-11-20T23:50:05.286Z,8.35
2022-11-20T23:55:07.191Z,8.49
